Thaxted, United Kingdom
Current Conditions -  °F | °C
As of 7:20 PM on Friday 21 Nov 2014 (Local Time) from EGSS Reporting Station
Haze Haze  
Wind Chill: 41°   Ceiling: 400
Heat Index: 46°   Visibility: 1.5mi
Dew Point: 46°   Wind: 12mph
Humidity: 100%   Direction: 150°SSE
Pressure: 29.97"   Gusts: NA
Location:  51.95°N, 0.34°E
Report Text: EGSS 211920Z 15010KT 2500 BR OVC004 08/08 Q1015
Loading
Personal Weather Stations






























Interactive Weather Map New forecast layout! Learn more

10-Day Weather Forecast

Advertisements
Track Severe Weather on mobile